Time;durP1;ratioP1;P1;durP2;ratioP2;P2;SDS_P1;SDS_P2;PMS_P1;PMS_P2;Temp;Humidity;BMP_temperature;BMP_pressure;BME280_temperature;BME280_humidity;BME280_pressure;Samples;Min_cycle;Max_cycle;Signal;HPM_P1;HPM_P2
2021/09/20 00:05:48;;;;;;;;;;;;;;;;;;;;;
2021/09/20 00:31:55;;;;;;;4.07;3.45;;;11.80;99.90;;;;;;5554223;25;20046;-89
2021/09/20 01:10:26;;;;;;;5.78;4.32;;;11.50;99.90;;;;;;5794121;24;20347;-86
2021/09/20 01:13:28;;;;;;;5.63;4.45;;;11.50;99.90;;;;;;5806934;24;20021;-87
2021/09/20 01:25:30;;;;;;;5.78;4.80;;;11.40;99.90;;;;;;6074291;23;20014;-91
2021/09/20 01:28:49;;;;;;;6.93;4.35;;;11.40;99.90;;;;;;6020373;23;20429;-91
2021/09/20 01:31:16;;;;;;;5.30;3.92;;;11.40;99.90;;;;;;5989730;23;20015;-91
2021/09/20 01:33:43;;;;;;;6.10;4.30;;;11.40;99.90;;;;;;5987996;23;20026;-86
2021/09/20 01:36:34;;;;;;;5.80;4.38;;;11.40;99.90;;;;;;6010662;23;20022;-87
2021/09/20 01:39:39;;;;;;;6.22;4.13;;;11.40;99.90;;;;;;5995506;23;20759;-87
2021/09/20 01:42:57;;;;;;;;;;;;;;;;;;;;;
2021/09/20 02:04:17;;;;;;;5.65;4.50;;;11.30;99.90;;;;;;5953650;24;20474;-88
2021/09/20 02:34:48;;;;;;;4.25;2.97;;;11.10;99.90;;;;;;5799081;24;20016;-93
2021/09/20 03:23:26;;;;;;;3.28;2.33;;;10.70;99.90;;;;;;5904837;24;20016;-93
2021/09/20 03:58:56;;;;;;;6.07;4.88;;;10.60;99.90;;;;;;5822761;24;20122;-93
2021/09/20 05:05:37;;;;;;;7.35;4.72;;;10.20;99.90;;;;;;5847427;24;20026;-90
2021/09/20 05:08:12;;;;;;;6.25;5.13;;;10.20;99.90;;;;;;5899673;24;20012;-90
2021/09/20 05:11:23;;;;;;;7.03;5.60;;;10.20;99.90;;;;;;5906067;24;20023;-93
2021/09/20 05:14:23;;;;;;;7.35;5.63;;;10.20;99.90;;;;;;5928719;24;20014;-91
2021/09/20 05:16:52;;;;;;;5.95;4.82;;;10.20;99.90;;;;;;5926252;24;20024;-91
2021/09/20 05:58:19;;;;;;;8.27;5.97;;;10.60;99.90;;;;;;6153189;23;20029;-92
2021/09/20 06:02:26;;;;;;;10.90;7.32;;;10.70;99.90;;;;;;6116057;23;20021;-90
2021/09/20 06:14:19;;;;;;;15.85;6.80;;;11.10;99.90;;;;;;6159579;23;20013;-88
2021/09/20 06:16:58;;;;;;;11.35;7.78;;;11.30;99.90;;;;;;6091961;23;20028;-86
2021/09/20 06:20:19;;;;;;;;;;;11.40;99.90;;;;;;6123614;23;20453;-93
2021/09/20 06:23:01;;;;;;;9.57;7.38;;;11.50;99.90;;;;;;6097599;23;19909;-87
2021/09/20 06:25:37;;;;;;;11.80;7.85;;;11.50;99.90;;;;;;6098418;23;20005;-87
2021/09/20 06:28:07;;;;;;;9.15;6.65;;;11.60;99.90;;;;;;6095781;23;20343;-86
2021/09/20 06:30:49;;;;;;;10.10;7.32;;;11.60;99.90;;;;;;6119455;23;20013;-86
2021/09/20 06:33:19;;;;;;;10.68;6.55;;;11.70;99.90;;;;;;6073337;23;20765;-87
2021/09/20 06:35:58;;;;;;;10.10;7.05;;;11.80;99.90;;;;;;6072903;23;20013;-87
2021/09/20 06:38:41;;;;;;;11.38;6.10;;;11.90;99.90;;;;;;6072998;23;20009;-86
2021/09/20 06:41:08;;;;;;;7.55;6.10;;;11.90;99.90;;;;;;6072477;23;20020;-87
2021/09/20 06:43:48;;;;;;;9.63;6.85;;;12.00;99.90;;;;;;6076884;23;20229;-86
2021/09/20 06:46:17;;;;;;;10.80;7.35;;;12.10;99.90;;;;;;6124432;23;20012;-88
2021/09/20 06:48:55;;;;;;;8.98;6.70;;;12.10;99.90;;;;;;6095518;23;20038;-87
2021/09/20 06:51:33;;;;;;;9.98;6.90;;;12.20;99.90;;;;;;6097009;23;20014;-88
2021/09/20 06:54:25;;;;;;;8.98;6.90;;;12.30;99.90;;;;;;6072530;23;20347;-88
2021/09/20 06:58:00;;;;;;;7.32;5.68;;;12.40;99.90;;;;;;6075698;23;20025;-88
2021/09/20 07:00:50;;;;;;;7.78;5.68;;;12.50;99.80;;;;;;5930369;24;20807;-88
2021/09/20 07:08:06;;;;;;;;;;;;;;;;;;;;;
2021/09/20 07:11:49;;;;;;;6.97;5.60;;;12.80;99.30;;;;;;5888745;24;20024;-85
2021/09/20 07:14:59;;;;;;;9.20;7.03;;;12.90;99.10;;;;;;5889508;24;20050;-87
2021/09/20 07:17:36;;;;;;;7.53;6.07;;;13.10;98.80;;;;;;5998237;23;20026;-87
2021/09/20 07:20:23;;;;;;;8.02;5.75;;;13.20;98.30;;;;;;6063769;23;20010;-89
2021/09/20 07:22:59;;;;;;;6.25;5.65;;;13.20;97.90;;;;;;6063139;23;20464;-86
2021/09/20 07:26:06;;;;;;;7.22;5.97;;;13.30;97.80;;;;;;6033911;23;20018;-86
2021/09/20 07:28:45;;;;;;;6.40;5.05;;;13.50;97.50;;;;;;6049395;23;20478;-86
2021/09/20 07:31:38;;;;;;;6.47;4.93;;;13.50;97.00;;;;;;6070767;23;20021;-86
2021/09/20 07:34:15;;;;;;;7.30;5.38;;;13.60;97.10;;;;;;6071206;23;20014;-87
2021/09/20 07:36:52;;;;;;;8.27;5.93;;;13.70;96.90;;;;;;6039871;23;20017;-87
2021/09/20 07:40:12;;;;;;;8.90;6.22;;;13.80;96.70;;;;;;6011153;23;20523;-87
2021/09/20 07:42:51;;;;;;;8.88;6.85;;;13.80;96.50;;;;;;6003570;23;20007;-86
2021/09/20 07:45:56;;;;;;;6.43;5.75;;;13.90;96.30;;;;;;5972986;23;20062;-87
2021/09/20 07:48:30;;;;;;;6.85;6.05;;;14.00;96.10;;;;;;6008439;23;20022;-85
2021/09/20 07:51:56;;;;;;;8.40;6.60;;;14.00;95.90;;;;;;5990127;23;20133;-87
2021/09/20 07:54:26;;;;;;;7.82;6.32;;;14.10;95.80;;;;;;5932838;23;20020;-86
2021/09/20 07:57:08;;;;;;;7.10;6.30;;;14.20;95.80;;;;;;6011435;23;20015;-86
2021/09/20 07:59:41;;;;;;;8.13;7.07;;;14.30;95.80;;;;;;6022924;23;20516;-84
2021/09/20 08:02:12;;;;;;;8.48;6.30;;;14.30;95.60;;;;;;6038812;23;20010;-87
2021/09/20 08:04:56;;;;;;;5.93;5.33;;;14.40;95.20;;;;;;6036906;23;20505;-88
2021/09/20 08:07:40;;;;;;;6.60;5.63;;;14.50;95.40;;;;;;6065926;23;20010;-87
2021/09/20 08:10:48;;;;;;;5.95;5.30;;;14.60;95.40;;;;;;6021044;23;20014;-88
2021/09/20 08:13:22;;;;;;;7.18;6.47;;;14.80;95.30;;;;;;6062428;23;20021;-82
2021/09/20 08:16:15;;;;;;;9.60;7.13;;;14.90;94.90;;;;;;6070221;23;20450;-83
2021/09/20 08:18:47;;;;;;;8.27;6.20;;;15.00;94.60;;;;;;6070589;23;20017;-85
2021/09/20 08:21:17;;;;;;;7.57;6.00;;;15.00;94.60;;;;;;6041848;23;20006;-88
2021/09/20 08:24:39;;;;;;;8.25;5.95;;;15.10;94.50;;;;;;6094106;23;20404;-93
2021/09/20 08:28:45;;;;;;;8.02;5.82;;;15.20;93.60;;;;;;6066036;23;20014;-91
2021/09/20 08:36:11;;;;;;;7.65;6.50;;;15.50;93.30;;;;;;5974122;24;20313;-90
2021/09/20 08:38:41;;;;;;;6.50;5.70;;;15.60;92.90;;;;;;6056707;23;20015;-86
2021/09/20 08:45:24;;;;;;;8.70;5.30;;;15.80;92.70;;;;;;5945702;24;20013;-91
2021/09/20 08:48:23;;;;;;;5.53;4.40;;;16.00;91.90;;;;;;5930332;23;20012;-88
2021/09/20 08:50:56;;;;;;;6.47;4.60;;;16.00;91.80;;;;;;5949341;24;20454;-90
2021/09/20 08:53:25;;;;;;;6.20;4.72;;;16.10;91.90;;;;;;5947165;23;20016;-84
2021/09/20 08:55:54;;;;;;;6.90;5.65;;;16.10;91.70;;;;;;5941608;23;20472;-84
2021/09/20 08:58:23;;;;;;;6.88;4.93;;;16.30;91.40;;;;;;6054588;23;20089;-83
2021/09/20 09:01:23;;;;;;;10.35;5.22;;;16.30;91.40;;;;;;6035422;23;20034;-85
2021/09/20 09:05:02;;;;;;;5.90;5.15;;;16.40;90.90;;;;;;5952822;24;20013;-87
2021/09/20 09:08:23;;;;;;;6.13;4.40;;;16.60;90.80;;;;;;5920369;24;20029;-88
2021/09/20 09:11:34;;;;;;;6.05;4.07;;;16.70;90.90;;;;;;5902732;24;20012;-93
2021/09/20 09:14:06;;;;;;;6.22;5.03;;;16.80;90.50;;;;;;6046488;23;20024;-85
2021/09/20 09:16:48;;;;;;;4.45;3.90;;;16.90;89.90;;;;;;6105244;23;20458;-84
2021/09/20 09:19:29;;;;;;;9.43;5.05;;;16.90;89.70;;;;;;6080842;23;20013;-85
2021/09/20 09:22:01;;;;;;;7.05;4.60;;;16.90;88.90;;;;;;6071130;23;20450;-82
2021/09/20 09:24:28;;;;;;;8.05;4.78;;;17.00;89.30;;;;;;6072014;23;20423;-82
2021/09/20 09:27:15;;;;;;;5.80;4.03;;;17.10;89.30;;;;;;6121399;23;20014;-82
2021/09/20 09:30:17;;;;;;;4.72;4.00;;;17.20;87.60;;;;;;6058251;23;20022;-84
2021/09/20 09:36:52;;;;;;;4.72;3.92;;;17.30;86.70;;;;;;6148054;23;20021;-83
2021/09/20 09:39:47;;;;;;;7.47;5.13;;;17.40;86.40;;;;;;6088072;23;20013;-83
2021/09/20 09:42:32;;;;;;;5.53;3.15;;;17.50;86.20;;;;;;6126503;23;20451;-82
2021/09/20 09:45:50;;;;;;;5.30;3.95;;;17.60;86.00;;;;;;6065499;23;20018;-83
2021/09/20 09:48:30;;;;;;;4.95;3.60;;;17.80;85.50;;;;;;6066314;23;20470;-82
2021/09/20 09:51:10;;;;;;;3.75;3.15;;;17.90;85.30;;;;;;6095648;23;20667;-83
2021/09/20 09:53:42;;;;;;;4.97;3.53;;;18.00;85.70;;;;;;6096457;23;20013;-83
2021/09/20 09:56:18;;;;;;;4.50;3.72;;;18.10;84.90;;;;;;6080448;23;20025;-81
2021/09/20 09:59:00;;;;;;;6.85;3.20;;;18.20;83.70;;;;;;6095635;23;20009;-81
2021/09/20 10:01:37;;;;;;;5.70;3.50;;;18.20;83.10;;;;;;6068042;23;20013;-80
2021/09/20 10:04:23;;;;;;;8.65;4.40;;;18.30;82.00;;;;;;6045078;23;20324;-83
2021/09/20 10:06:58;;;;;;;5.47;4.20;;;18.30;81.30;;;;;;6071014;23;20041;-83
2021/09/20 10:09:48;;;;;;;4.75;2.63;;;18.30;81.90;;;;;;6071377;23;20010;-83
2021/09/20 10:12:21;;;;;;;4.68;3.10;;;18.50;82.30;;;;;;6042270;23;20022;-84
2021/09/20 10:15:03;;;;;;;6.03;3.53;;;18.70;82.00;;;;;;6067431;23;20014;-84
2021/09/20 10:17:57;;;;;;;4.88;2.17;;;18.80;79.90;;;;;;6010630;23;20029;-86
2021/09/20 10:20:34;;;;;;;3.00;2.63;;;18.80;80.20;;;;;;6030127;23;20545;-84
2021/09/20 10:23:01;;;;;;;3.38;2.72;;;19.00;80.30;;;;;;6033208;23;20337;-82
2021/09/20 10:25:31;;;;;;;4.22;2.92;;;19.00;79.80;;;;;;6057392;23;20020;-86
2021/09/20 10:27:59;;;;;;;4.78;3.05;;;19.40;79.50;;;;;;6007563;23;20026;-85
2021/09/20 10:30:32;;;;;;;;;;;19.60;76.80;;;;;;6033835;23;20019;-87
2021/09/20 10:33:11;;;;;;;4.28;3.88;;;19.70;75.80;;;;;;6058500;23;20111;-86
2021/09/20 10:36:16;;;;;;;4.45;2.65;;;19.60;73.40;;;;;;5990370;23;20034;-85
2021/09/20 10:38:53;;;;;;;10.00;3.58;;;19.30;74.70;;;;;;6008245;23;20428;-87
2021/09/20 10:41:22;;;;;;;4.60;4.10;;;19.40;75.50;;;;;;5984853;23;20038;-84
2021/09/20 10:44:10;;;;;;;6.45;3.88;;;19.90;75.50;;;;;;5985532;23;20018;-83
2021/09/20 10:47:12;;;;;;;3.55;2.85;;;20.50;73.80;;;;;;6032688;23;20014;-83
2021/09/20 10:49:52;;;;;;;4.72;3.55;;;21.20;71.90;;;;;;6084018;23;20025;-85
2021/09/20 10:52:27;;;;;;;3.25;2.92;;;21.60;70.30;;;;;;6043535;23;20426;-83
2021/09/20 10:55:33;;;;;;;3.38;3.05;;;22.00;70.40;;;;;;6065872;23;20017;-81
2021/09/20 10:59:05;;;;;;;4.95;4.53;;;22.20;68.50;;;;;;6013621;23;20017;-86
2021/09/20 11:01:33;;;;;;;3.97;3.03;;;22.00;65.90;;;;;;6090673;23;20017;-81
2021/09/20 11:04:09;;;;;;;3.65;2.95;;;21.60;67.00;;;;;;6090758;23;20017;-81
2021/09/20 11:11:33;;;;;;;3.53;2.80;;;20.70;68.40;;;;;;6015430;23;20090;-83
2021/09/20 11:19:28;;;;;;;5.68;3.70;;;20.70;70.60;;;;;;6059666;23;20026;-89
2021/09/20 11:22:24;;;;;;;3.70;3.33;;;21.80;67.90;;;;;;5977668;23;20342;-87
2021/09/20 11:25:35;;;;;;;3.70;2.45;;;22.30;66.60;;;;;;5950549;24;20012;-87
2021/09/20 11:33:10;;;;;;;;;;;;;;;;;;;;;
2021/09/20 11:43:04;;;;;;;3.25;2.88;;;20.30;68.00;;;;;;5954835;24;20028;-86
2021/09/20 11:51:08;;;;;;;4.53;3.20;;;20.10;68.80;;;;;;5923596;23;20031;-85
2021/09/20 11:53:38;;;;;;;4.03;2.95;;;20.10;69.30;;;;;;5895066;24;20016;-82
2021/09/20 11:56:05;;;;;;;4.97;3.17;;;20.00;69.20;;;;;;5947621;23;20015;-86
2021/09/20 11:58:31;;;;;;;3.10;2.80;;;19.70;70.10;;;;;;5979130;23;20118;-88
2021/09/20 12:01:42;;;;;;;3.78;3.40;;;19.60;71.00;;;;;;5975055;23;20125;-84
2021/09/20 12:05:09;;;;;;;5.57;3.40;;;19.50;71.80;;;;;;5957755;23;20008;-83
2021/09/20 12:08:07;;;;;;;3.90;3.45;;;19.40;72.10;;;;;;5995839;23;20028;-87
2021/09/20 12:11:04;;;;;;;6.65;4.32;;;19.50;72.40;;;;;;5977456;23;20015;-84
2021/09/20 12:13:56;;;;;;;5.10;4.00;;;19.50;71.70;;;;;;5975105;23;20015;-85
2021/09/20 12:18:00;;;;;;;4.50;3.78;;;19.50;71.80;;;;;;5999907;23;20015;-85
2021/09/20 12:21:33;;;;;;;4.30;3.72;;;19.40;71.60;;;;;;5944383;24;20135;-84
2021/09/20 12:29:09;;;;;;;5.68;3.20;;;19.50;71.90;;;;;;6023453;23;20471;-84
2021/09/20 12:37:29;;;;;;;5.47;4.32;;;19.50;71.70;;;;;;6032086;23;20010;-84
2021/09/20 12:44:53;;;;;;;3.70;2.55;;;19.10;71.20;;;;;;6004839;23;20485;-85
2021/09/20 13:06:15;;;;;;;3.80;2.67;;;18.80;72.50;;;;;;5758116;24;20022;-86
2021/09/20 13:09:50;;;;;;;6.55;2.35;;;18.80;72.60;;;;;;5679244;25;20024;-86
2021/09/20 13:14:00;;;;;;;3.72;2.20;;;18.70;72.70;;;;;;5666839;25;20038;-85
2021/09/20 13:42:32;;;;;;;3.80;1.70;;;19.30;71.90;;;;;;5770335;24;20516;-86
2021/09/20 13:45:18;;;;;;;;;;;;;;;;;;;;;
2021/09/20 13:48:26;;;;;;;3.75;1.48;;;18.70;70.80;;;;;;5868800;24;20017;-84
2021/09/20 13:51:21;;;;;;;1.95;1.10;;;18.40;71.70;;;;;;5920495;24;20348;-81
2021/09/20 13:53:54;;;;;;;1.75;0.80;;;18.20;71.70;;;;;;5922264;24;20016;-83
2021/09/20 13:57:31;;;;;;;3.40;1.08;;;18.10;72.20;;;;;;5922231;24;20343;-86
2021/09/20 14:01:21;;;;;;;2.08;0.80;;;17.90;72.10;;;;;;5957440;24;20039;-84
2021/09/20 14:04:15;;;;;;;4.30;1.15;;;17.90;73.30;;;;;;5952869;24;20016;-85
2021/09/20 14:15:36;;;;;;;;;;;;;;;;;;;;;
2021/09/20 14:18:57;;;;;;;2.97;0.60;;;18.20;73.90;;;;;;5970446;24;20043;-84
2021/09/20 14:29:47;;;;;;;2.72;0.88;;;18.70;72.80;;;;;;5962633;24;20019;-84
2021/09/20 14:33:26;;;;;;;2.30;0.90;;;18.80;72.30;;;;;;5959930;23;20020;-84
2021/09/20 14:40:44;;;;;;;1.98;0.60;;;18.90;71.20;;;;;;6029816;23;20073;-85
2021/09/20 15:00:14;;;;;;;2.08;0.60;;;18.90;69.30;;;;;;5837598;24;20026;-84
2021/09/20 15:03:01;;;;;;;3.20;0.45;;;18.80;69.30;;;;;;5844026;24;20030;-81
2021/09/20 15:05:30;;;;;;;2.45;0.70;;;18.70;69.60;;;;;;5897076;24;20343;-83
2021/09/20 15:08:02;;;;;;;3.28;0.60;;;18.70;69.40;;;;;;5962553;24;20012;-87
2021/09/20 15:10:30;;;;;;;3.10;0.93;;;18.60;70.20;;;;;;6041269;23;20467;-90
2021/09/20 15:12:57;;;;;;;2.35;0.70;;;18.60;69.80;;;;;;6038716;23;20535;-87
2021/09/20 15:15:24;;;;;;;1.23;0.50;;;18.50;69.70;;;;;;6064852;23;20015;-88
2021/09/20 15:17:54;;;;;;;2.45;0.70;;;18.50;69.60;;;;;;6039414;23;20011;-87
2021/09/20 15:20:47;;;;;;;6.20;3.72;;;18.40;69.70;;;;;;6092022;23;20020;-87
2021/09/20 15:23:13;;;;;;;23.63;10.90;;;18.40;69.60;;;;;;6070394;23;20010;-85
2021/09/20 15:26:18;;;;;;;14.90;5.35;;;18.40;70.40;;;;;;6130246;23;20009;-90
2021/09/20 15:28:57;;;;;;;2.67;0.90;;;18.50;70.70;;;;;;6088877;23;20023;-90
2021/09/20 15:31:36;;;;;;;1.85;0.45;;;18.50;69.80;;;;;;6093602;23;20020;-90
2021/09/20 15:34:03;;;;;;;2.35;0.70;;;18.40;69.90;;;;;;6101901;23;20020;-89
2021/09/20 15:56:38;;;;;;;2.53;0.80;;;17.40;73.00;;;;;;6094511;23;20002;-90
2021/09/20 16:00:52;;;;;;;2.25;0.73;;;17.20;73.80;;;;;;6041351;23;20029;-88
2021/09/20 16:03:50;;;;;;;2.63;0.70;;;17.20;74.40;;;;;;6020539;23;20029;-87
2021/09/20 16:06:21;;;;;;;1.95;0.70;;;17.00;75.00;;;;;;6016321;23;20014;-84
2021/09/20 16:08:51;;;;;;;2.75;0.40;;;16.80;74.20;;;;;;6040155;23;20025;-84
2021/09/20 16:11:17;;;;;;;1.90;0.40;;;16.60;74.20;;;;;;6064081;23;20010;-85
2021/09/20 16:13:51;;;;;;;1.98;0.40;;;16.60;73.90;;;;;;6016220;23;20010;-84
2021/09/20 16:17:23;;;;;;;;;;;;;;;;;;;;;
2021/09/20 16:21:17;;;;;;;4.40;0.73;;;16.40;74.50;;;;;;6039560;23;20029;-85
2021/09/20 16:23:48;;;;;;;1.33;0.40;;;16.30;74.60;;;;;;5969851;23;20452;-91
2021/09/20 16:26:22;;;;;;;2.83;0.50;;;16.20;75.00;;;;;;6017462;23;20025;-89
2021/09/20 16:28:57;;;;;;;1.75;0.50;;;16.10;75.50;;;;;;6067630;23;20010;-86
2021/09/20 16:31:26;;;;;;;1.40;0.40;;;16.00;76.10;;;;;;6046902;23;20006;-87
2021/09/20 16:33:54;;;;;;;2.33;0.50;;;16.00;76.60;;;;;;6093865;23;20017;-86
2021/09/20 16:36:29;;;;;;;1.67;0.50;;;15.90;77.30;;;;;;6073767;23;20009;-85
2021/09/20 16:38:56;;;;;;;1.70;0.77;;;15.80;77.30;;;;;;6096063;23;20010;-85
2021/09/20 16:41:35;;;;;;;1.17;0.50;;;15.80;77.40;;;;;;6073611;23;20010;-88
2021/09/20 16:44:07;;;;;;;2.78;0.47;;;15.80;77.50;;;;;;6048810;23;20021;-85
2021/09/20 16:46:59;;;;;;;1.60;0.60;;;15.80;77.50;;;;;;6095756;23;20029;-89
2021/09/20 16:49:27;;;;;;;2.88;0.90;;;15.90;77.90;;;;;;6047856;23;20010;-87
2021/09/20 16:51:58;;;;;;;3.28;1.33;;;15.90;78.00;;;;;;6072413;23;20028;-87
2021/09/20 16:54:28;;;;;;;2.75;1.17;;;16.00;78.30;;;;;;6116462;23;20328;-86
2021/09/20 16:56:58;;;;;;;2.97;1.15;;;16.00;78.30;;;;;;6029358;23;20010;-84
2021/09/20 16:59:58;;;;;;;3.28;1.13;;;16.00;78.40;;;;;;6045699;23;20014;-88
2021/09/20 17:02:50;;;;;;;2.20;0.93;;;16.00;78.70;;;;;;6075966;23;20010;-87
2021/09/20 17:06:10;;;;;;;2.22;0.60;;;16.00;78.70;;;;;;5958198;24;20017;-88
2021/09/20 17:09:00;;;;;;;2.00;0.98;;;16.00;78.70;;;;;;5907420;24;20016;-89
2021/09/20 17:14:41;;;;;;;3.38;0.90;;;15.80;79.40;;;;;;6051637;23;20451;-89
2021/09/20 17:17:08;;;;;;;1.33;0.50;;;15.70;79.60;;;;;;6016864;23;20356;-88
2021/09/20 17:19:41;;;;;;;2.50;0.77;;;15.50;79.80;;;;;;6069187;23;20443;-89
2021/09/20 17:22:08;;;;;;;3.33;0.95;;;15.40;80.30;;;;;;6082743;23;20013;-88
2021/09/20 17:24:35;;;;;;;3.10;0.82;;;15.30;80.80;;;;;;6046856;23;20094;-88
2021/09/20 17:27:02;;;;;;;1.33;0.50;;;15.10;81.10;;;;;;6071638;23;20006;-87
2021/09/20 17:29:28;;;;;;;2.35;0.55;;;15.00;81.20;;;;;;6073666;23;20013;-88
2021/09/20 17:31:55;;;;;;;1.63;0.50;;;15.00;81.60;;;;;;6095995;23;20010;-88
2021/09/20 17:34:22;;;;;;;6.38;3.55;;;14.80;81.90;;;;;;6049761;23;20016;-88
2021/09/20 17:36:49;;;;;;;5.65;1.75;;;14.80;82.30;;;;;;6095125;23;20021;-88
2021/09/20 17:39:16;;;;;;;5.00;2.97;;;14.60;82.50;;;;;;6073494;23;20010;-88
2021/09/20 17:41:42;;;;;;;6.75;4.32;;;14.60;82.80;;;;;;6048622;23;20397;-89
2021/09/20 17:44:10;;;;;;;3.38;1.85;;;14.40;83.00;;;;;;6025526;23;20010;-81
2021/09/20 17:46:36;;;;;;;3.35;1.70;;;14.30;83.20;;;;;;6032535;23;20022;-82
2021/09/20 17:49:04;;;;;;;4.63;3.20;;;14.30;83.70;;;;;;5997634;23;20029;-83
2021/09/20 17:51:32;;;;;;;5.30;2.72;;;14.20;83.80;;;;;;6043839;23;20014;-81
2021/09/20 17:53:58;;;;;;;5.03;1.75;;;14.10;84.00;;;;;;6086628;23;20014;-81
2021/09/20 17:56:25;;;;;;;2.15;0.90;;;14.10;84.30;;;;;;6032912;23;20022;-81
2021/09/20 17:58:51;;;;;;;2.90;1.05;;;14.10;84.60;;;;;;6069859;23;20021;-82
2021/09/20 18:01:18;;;;;;;2.35;1.08;;;14.10;84.90;;;;;;6068583;23;20461;-82
2021/09/20 18:03:44;;;;;;;2.67;0.60;;;14.00;85.00;;;;;;6061515;23;20340;-81
2021/09/20 18:06:56;;;;;;;3.97;0.50;;;14.10;84.90;;;;;;6069140;23;20019;-93
2021/09/20 18:14:19;;;;;;;2.08;0.60;;;14.30;84.80;;;;;;6137793;23;20008;-90
2021/09/20 18:17:10;;;;;;;1.80;0.80;;;14.30;84.50;;;;;;6071230;23;20010;-92
2021/09/20 18:20:23;;;;;;;1.13;0.50;;;14.30;84.70;;;;;;6062401;23;20021;-91
2021/09/20 18:22:58;;;;;;;1.80;0.70;;;14.30;84.80;;;;;;6074177;23;20010;-90
2021/09/20 18:25:31;;;;;;;1.67;0.70;;;14.30;84.70;;;;;;6070058;23;20002;-90
2021/09/20 18:28:31;;;;;;;1.85;0.80;;;14.40;85.00;;;;;;6050316;23;20018;-88
2021/09/20 18:31:35;;;;;;;1.65;0.50;;;14.40;85.10;;;;;;6095974;23;20021;-85
2021/09/20 18:34:21;;;;;;;5.15;0.63;;;14.40;85.30;;;;;;6114422;23;20013;-85
2021/09/20 18:36:47;;;;;;;2.05;0.60;;;14.40;85.30;;;;;;6064235;23;20018;-86
2021/09/20 18:39:32;;;;;;;2.50;0.63;;;14.50;85.30;;;;;;6069751;23;20025;-88
2021/09/20 19:18:20;;;;;;;2.65;1.00;;;14.40;85.50;;;;;;6131144;23;20029;-87
2021/09/20 19:40:46;;;;;;;2.28;0.63;;;13.80;86.80;;;;;;6131453;23;20048;-88
2021/09/20 19:43:59;;;;;;;3.00;0.82;;;13.60;87.50;;;;;;6051250;23;20013;-89
2021/09/20 20:01:46;;;;;;;2.17;0.90;;;13.00;89.20;;;;;;6110340;23;20028;-89
2021/09/20 20:14:46;;;;;;;2.08;1.00;;;12.70;90.10;;;;;;6102778;23;20021;-88
2021/09/20 20:26:55;;;;;;;6.13;3.03;;;12.50;90.60;;;;;;5971669;24;20031;-86
2021/09/20 20:34:41;;;;;;;3.80;1.48;;;12.40;90.80;;;;;;5983426;24;20038;-86
2021/09/20 20:42:26;;;;;;;6.32;1.77;;;12.20;91.30;;;;;;5984525;23;20031;-86
2021/09/20 20:45:08;;;;;;;2.90;1.50;;;12.20;91.60;;;;;;6017405;23;20022;-87
2021/09/20 20:47:55;;;;;;;2.67;1.65;;;12.20;91.70;;;;;;6079116;23;20483;-87
2021/09/20 20:50:57;;;;;;;5.88;1.48;;;12.10;91.80;;;;;;6054276;23;20022;-86
2021/09/20 20:53:57;;;;;;;3.10;1.48;;;12.00;91.80;;;;;;6041407;23;20033;-86
2021/09/20 20:57:09;;;;;;;2.38;1.23;;;12.00;92.10;;;;;;5991350;23;20014;-87
2021/09/20 20:59:45;;;;;;;2.90;1.63;;;11.90;92.20;;;;;;5966476;23;20372;-85
2021/09/20 21:02:12;;;;;;;2.35;1.27;;;11.80;92.20;;;;;;5963204;23;20041;-86
2021/09/20 21:04:45;;;;;;;3.10;1.90;;;11.80;92.30;;;;;;5987039;23;20014;-86
2021/09/20 21:07:14;;;;;;;4.85;2.15;;;11.80;92.40;;;;;;5930138;23;20922;-88
2021/09/20 21:15:06;;;;;;;2.97;1.70;;;11.70;92.60;;;;;;5955179;24;20027;-87
2021/09/20 21:22:01;;;;;;;3.75;2.00;;;11.60;92.80;;;;;;5966800;24;20035;-86
2021/09/20 21:25:20;;;;;;;5.40;1.70;;;11.60;93.00;;;;;;5977223;23;20389;-84
2021/09/20 21:28:40;;;;;;;3.65;2.03;;;11.50;93.10;;;;;;5978406;23;20015;-87
2021/09/20 21:31:51;;;;;;;;;;;;;;;;;;;;;
2021/09/20 21:35:34;;;;;;;;;;;;;;;;;;;;;
2021/09/20 21:38:39;;;;;;;2.95;1.95;;;11.50;93.50;;;;;;5921899;23;20071;-88
2021/09/20 21:41:35;;;;;;;4.38;2.05;;;11.40;93.30;;;;;;6016863;23;20020;-86
2021/09/20 21:44:08;;;;;;;5.82;2.03;;;11.40;93.40;;;;;;6003989;23;20011;-86
2021/09/20 21:46:42;;;;;;;5.00;2.00;;;11.40;93.50;;;;;;6029622;23;20460;-87
2021/09/20 21:49:12;;;;;;;4.75;1.98;;;11.50;93.60;;;;;;5962589;23;20338;-86
2021/09/20 21:51:46;;;;;;;2.80;1.90;;;11.50;93.60;;;;;;5990336;23;20038;-87
2021/09/20 21:54:22;;;;;;;3.17;1.90;;;11.60;93.50;;;;;;5977570;23;20020;-86
2021/09/20 21:57:03;;;;;;;3.15;1.63;;;11.70;93.50;;;;;;5992608;23;20019;-88
2021/09/20 21:59:49;;;;;;;4.13;1.77;;;11.80;93.40;;;;;;6014378;23;20015;-87
2021/09/20 22:02:16;;;;;;;4.55;2.33;;;11.90;93.40;;;;;;6042584;23;20029;-87
2021/09/20 22:04:52;;;;;;;3.92;2.03;;;11.90;93.40;;;;;;6071192;23;20017;-86
2021/09/20 22:07:28;;;;;;;3.50;2.10;;;11.90;93.40;;;;;;6043906;23;20014;-87
2021/09/20 22:10:07;;;;;;;3.67;1.67;;;12.00;93.50;;;;;;6045812;23;20029;-87
2021/09/20 22:12:44;;;;;;;4.55;1.67;;;12.00;93.40;;;;;;6048259;23;20010;-87
2021/09/20 22:15:15;;;;;;;3.80;1.50;;;12.00;93.30;;;;;;6069942;23;20022;-88
2021/09/20 22:17:47;;;;;;;4.30;2.05;;;12.00;93.30;;;;;;6067787;23;20021;-87
2021/09/20 22:20:17;;;;;;;2.88;1.90;;;12.00;93.30;;;;;;6046675;23;20017;-87
2021/09/20 22:22:43;;;;;;;3.15;1.98;;;12.00;93.30;;;;;;6069667;23;20335;-88
2021/09/20 22:25:10;;;;;;;2.88;1.60;;;12.00;93.30;;;;;;6069115;23;20014;-87
2021/09/20 22:27:40;;;;;;;3.58;1.83;;;11.90;93.30;;;;;;6070577;23;20021;-87
2021/09/20 22:30:08;;;;;;;3.58;1.52;;;11.90;93.40;;;;;;6045132;23;20006;-87
2021/09/20 22:32:46;;;;;;;4.13;2.00;;;11.80;93.50;;;;;;6068823;23;20006;-88
2021/09/20 22:35:13;;;;;;;;;;;11.70;93.60;;;;;;6072384;23;20006;-86
2021/09/20 22:37:42;;;;;;;2.15;1.52;;;11.60;93.70;;;;;;6090667;23;19916;-86
2021/09/20 22:40:09;;;;;;;4.32;1.95;;;11.50;93.70;;;;;;6093164;23;20010;-86
2021/09/20 22:42:36;;;;;;;3.42;1.70;;;11.50;93.80;;;;;;6043904;23;20017;-87
2021/09/20 22:45:03;;;;;;;3.47;1.63;;;11.40;93.80;;;;;;6044578;23;20014;-87
2021/09/20 22:47:30;;;;;;;4.32;1.75;;;11.30;93.90;;;;;;6043853;23;20009;-87
2021/09/20 22:49:57;;;;;;;4.25;1.92;;;11.30;94.00;;;;;;6044006;23;20142;-87
2021/09/20 22:52:26;;;;;;;3.85;2.00;;;11.20;94.10;;;;;;6068894;23;20025;-87
2021/09/20 22:55:04;;;;;;;3.80;1.88;;;11.20;94.20;;;;;;6044768;23;20018;-87
2021/09/20 22:57:31;;;;;;;4.05;1.73;;;11.20;94.30;;;;;;6069422;23;20427;-87
2021/09/20 22:59:59;;;;;;;3.33;1.48;;;11.10;94.30;;;;;;6021882;23;20014;-88
2021/09/20 23:02:42;;;;;;;4.00;1.67;;;11.10;94.30;;;;;;6069464;23;20440;-88
2021/09/20 23:05:36;;;;;;;;;;;11.00;94.30;;;;;;6068494;23;20022;-88
2021/09/20 23:09:02;;;;;;;;;;;;;;;;;;;;;
2021/09/20 23:12:45;;;;;;;4.00;1.60;;;10.90;94.30;;;;;;6079680;23;20021;-88
2021/09/20 23:15:22;;;;;;;3.40;1.30;;;10.90;94.40;;;;;;6070570;23;20021;-88
2021/09/20 23:18:10;;;;;;;2.42;1.20;;;10.90;94.30;;;;;;6076955;23;20033;-89
2021/09/20 23:21:05;;;;;;;3.08;1.17;;;10.90;94.30;;;;;;6020551;23;20015;-88
2021/09/20 23:24:30;;;;;;;2.28;1.13;;;10.90;94.30;;;;;;6079381;23;20002;-88
2021/09/20 23:27:08;;;;;;;2.42;1.17;;;10.90;94.40;;;;;;6052464;23;20482;-88
2021/09/20 23:29:45;;;;;;;2.67;1.23;;;10.90;94.40;;;;;;6073739;23;20014;-88
2021/09/20 23:32:12;;;;;;;3.28;0.80;;;10.90;94.40;;;;;;6044373;23;20014;-86
2021/09/20 23:34:38;;;;;;;3.15;1.50;;;10.80;94.40;;;;;;6069061;23;20017;-84
2021/09/20 23:37:05;;;;;;;2.22;1.00;;;10.80;94.40;;;;;;6069651;23;20010;-86
2021/09/20 23:40:23;;;;;;;3.83;1.42;;;10.80;94.50;;;;;;6070623;23;20021;-88
2021/09/20 23:42:50;;;;;;;3.35;1.52;;;10.80;94.60;;;;;;6024431;23;20013;-87
2021/09/20 23:45:20;;;;;;;4.63;1.20;;;10.70;94.50;;;;;;6050326;23;20021;-87
2021/09/20 23:47:46;;;;;;;2.50;1.30;;;10.70;94.60;;;;;;6099815;23;20006;-85
2021/09/20 23:50:52;;;;;;;2.70;1.23;;;10.80;94.60;;;;;;6077606;23;20013;-90
